Карточка аэропорта USRR

Внимание!
Информация на этой странице в стадии наполнения.
Если вы не увидели какой-то информации, или заметили неточность - пожалуйста сообщите нам!
Спасибо!
Команда RU-STAFF
Название аэропортаСургут
Название аэропорта (англ.)Surgut
Превышение196 ft. (59.7 m.)
Координаты61°20.502', 73°24.168'
Высота перехода700m
Эшелон переходаQFE>=742mm:FL040; QFE<=742mm:FL050
Коды ответчика5570-5577
Зона ОрВДТюмень РПИ (USTV)
Данные METARUSRR 251130Z 13004MPS 9999 FEW040CB 27/18 Q1000 R07/CLRD60 NOSIG RMK QFE745
Проноз погоды (TAF)USRR 251055Z 2512/2612 14003G10MPS 9999 SCT020CB TEMPO 2512/2515 VRB23MPS 2100 -TSRAGR SQ FEW005 BKN016CB TEMPO 2516/2524 0200 FG VV002 TEMPO 2600/2609 2100 -TSRA SCT005 BKN016CB BECMG 2601/2603 19006G13MPS
NOTAMshow/hide NOTAM
AWOS   TABLE

Информация о ВПП

ВПП Длина ВПП (м.) Покрытие Курс ВПП Частота ILS
252780Асфальтобетон253109.1
072780Асфальтобетон73110.5

Диспетчерские позиции

Позывной Наименование органа УВД Частота
USRR_APPСургут-Подход129.300
USRR_R_APPСургут - Круг120.300
USRR_TWRСургут-Вышка120.800



Спутниковое изображение